sensor_id;sensor_type;location;lat;lon;timestamp;pressure;altitude;pressure_sealevel;temperature;humidity
34328;BME280;20588;48.840;10.064;2023-05-02T00:00:42;96536.47;;;7.80;nan
34328;BME280;20588;48.840;10.064;2023-05-02T00:03:10;96533.31;;;7.78;nan
34328;BME280;20588;48.840;10.064;2023-05-02T00:05:36;96523.66;;;7.73;nan
34328;BME280;20588;48.840;10.064;2023-05-02T00:08:03;96526.19;;;7.73;nan
34328;BME280;20588;48.840;10.064;2023-05-02T00:10:29;96525.03;;;7.76;nan
34328;BME280;20588;48.840;10.064;2023-05-02T00:12:55;96527.19;;;7.72;nan
34328;BME280;20588;48.840;10.064;2023-05-02T00:15:21;96523.41;;;7.68;nan
34328;BME280;20588;48.840;10.064;2023-05-02T00:17:47;96524.59;;;7.66;nan
34328;BME280;20588;48.840;10.064;2023-05-02T00:20:13;96516.50;;;7.62;nan
34328;BME280;20588;48.840;10.064;2023-05-02T00:22:39;96519.44;;;7.59;nan
34328;BME280;20588;48.840;10.064;2023-05-02T00:25:06;96514.50;;;7.58;nan
34328;BME280;20588;48.840;10.064;2023-05-02T00:27:32;96519.25;;;7.54;nan
34328;BME280;20588;48.840;10.064;2023-05-02T00:29:58;96516.88;;;7.59;nan
34328;BME280;20588;48.840;10.064;2023-05-02T00:32:25;96519.19;;;8.01;nan
34328;BME280;20588;48.840;10.064;2023-05-02T00:34:52;96514.25;;;7.93;nan
34328;BME280;20588;48.840;10.064;2023-05-02T00:37:18;96516.00;;;7.86;nan
34328;BME280;20588;48.840;10.064;2023-05-02T00:39:44;96514.41;;;7.85;nan
34328;BME280;20588;48.840;10.064;2023-05-02T00:42:10;96514.84;;;7.89;nan
34328;BME280;20588;48.840;10.064;2023-05-02T00:44:36;96516.03;;;7.93;nan
34328;BME280;20588;48.840;10.064;2023-05-02T00:47:03;96521.56;;;7.96;nan
34328;BME280;20588;48.840;10.064;2023-05-02T00:49:29;96515.88;;;8.07;nan
34328;BME280;20588;48.840;10.064;2023-05-02T00:51:56;96521.19;;;8.12;nan
34328;BME280;20588;48.840;10.064;2023-05-02T00:54:23;96512.94;;;8.10;nan
34328;BME280;20588;48.840;10.064;2023-05-02T00:56:49;96519.00;;;8.09;nan
34328;BME280;20588;48.840;10.064;2023-05-02T00:59:15;96521.94;;;8.00;nan
34328;BME280;20588;48.840;10.064;2023-05-02T01:10:22;96532.25;;;7.59;nan
34328;BME280;20588;48.840;10.064;2023-05-02T01:13:03;96529.31;;;7.56;nan
34328;BME280;20588;48.840;10.064;2023-05-02T01:15:32;96540.09;;;7.51;nan
34328;BME280;20588;48.840;10.064;2023-05-02T01:18:00;96552.50;;;7.48;nan
34328;BME280;20588;48.840;10.064;2023-05-02T01:20:28;96550.31;;;7.45;nan
34328;BME280;20588;48.840;10.064;2023-05-02T01:22:59;96549.69;;;7.43;nan
34328;BME280;20588;48.840;10.064;2023-05-02T01:25:43;96552.25;;;7.43;nan
34328;BME280;20588;48.840;10.064;2023-05-02T01:31:18;96556.94;;;7.32;nan
34328;BME280;20588;48.840;10.064;2023-05-02T01:33:45;96549.81;;;7.28;nan
34328;BME280;20588;48.840;10.064;2023-05-02T01:36:14;96557.88;;;7.25;nan
34328;BME280;20588;48.840;10.064;2023-05-02T01:38:42;96554.72;;;7.23;nan
34328;BME280;20588;48.840;10.064;2023-05-02T01:41:09;96563.19;;;7.23;nan
34328;BME280;20588;48.840;10.064;2023-05-02T01:43:37;96564.13;;;7.22;nan
34328;BME280;20588;48.840;10.064;2023-05-02T01:46:06;96559.59;;;7.18;nan
34328;BME280;20588;48.840;10.064;2023-05-02T01:48:34;96560.72;;;7.09;nan
34328;BME280;20588;48.840;10.064;2023-05-02T01:51:02;96561.66;;;7.01;nan
34328;BME280;20588;48.840;10.064;2023-05-02T01:53:33;96564.00;;;6.96;nan
34328;BME280;20588;48.840;10.064;2023-05-02T01:56:01;96565.13;;;6.94;nan
34328;BME280;20588;48.840;10.064;2023-05-02T01:58:30;96562.56;;;6.87;nan
34328;BME280;20588;48.840;10.064;2023-05-02T02:00:58;96562.91;;;6.84;nan
34328;BME280;20588;48.840;10.064;2023-05-02T02:03:27;96569.19;;;6.82;nan
34328;BME280;20588;48.840;10.064;2023-05-02T02:05:54;96565.84;;;6.81;nan
34328;BME280;20588;48.840;10.064;2023-05-02T02:08:21;96565.22;;;6.79;nan
34328;BME280;20588;48.840;10.064;2023-05-02T02:10:56;96563.03;;;6.76;nan
34328;BME280;20588;48.840;10.064;2023-05-02T02:13:33;96567.13;;;6.71;nan
34328;BME280;20588;48.840;10.064;2023-05-02T02:16:03;96570.84;;;6.68;nan
34328;BME280;20588;48.840;10.064;2023-05-02T02:18:34;96574.31;;;6.61;nan
34328;BME280;20588;48.840;10.064;2023-05-02T02:21:01;96576.63;;;6.56;nan
34328;BME280;20588;48.840;10.064;2023-05-02T02:23:33;96589.19;;;6.51;nan
34328;BME280;20588;48.840;10.064;2023-05-02T02:26:02;96578.16;;;6.50;nan
34328;BME280;20588;48.840;10.064;2023-05-02T02:28:30;96586.81;;;6.49;nan
34328;BME280;20588;48.840;10.064;2023-05-02T02:30:56;96583.44;;;6.49;nan
34328;BME280;20588;48.840;10.064;2023-05-02T02:33:24;96587.75;;;6.48;nan
34328;BME280;20588;48.840;10.064;2023-05-02T02:36:06;96587.94;;;6.47;nan
34328;BME280;20588;48.840;10.064;2023-05-02T02:38:44;96583.19;;;6.44;nan
34328;BME280;20588;48.840;10.064;2023-05-02T02:41:22;96592.22;;;6.40;nan
34328;BME280;20588;48.840;10.064;2023-05-02T02:44:21;96593.38;;;6.37;nan
34328;BME280;20588;48.840;10.064;2023-05-02T02:47:00;96590.56;;;6.32;nan
34328;BME280;20588;48.840;10.064;2023-05-02T02:54:58;96603.81;;;6.21;nan
34328;BME280;20588;48.840;10.064;2023-05-02T02:57:40;96604.97;;;6.19;nan
34328;BME280;20588;48.840;10.064;2023-05-02T03:00:14;96607.63;;;6.11;nan
34328;BME280;20588;48.840;10.064;2023-05-02T03:02:42;96604.03;;;6.05;nan
34328;BME280;20588;48.840;10.064;2023-05-02T03:05:09;96611.88;;;6.04;nan
34328;BME280;20588;48.840;10.064;2023-05-02T03:07:36;96615.41;;;6.03;nan
34328;BME280;20588;48.840;10.064;2023-05-02T03:10:04;96610.47;;;6.01;nan
34328;BME280;20588;48.840;10.064;2023-05-02T03:12:31;96613.38;;;5.98;nan
34328;BME280;20588;48.840;10.064;2023-05-02T03:17:32;96620.50;;;5.88;nan
34328;BME280;20588;48.840;10.064;2023-05-02T03:19:58;96621.66;;;5.86;nan
34328;BME280;20588;48.840;10.064;2023-05-02T03:22:24;96628.34;;;5.87;nan
34328;BME280;20588;48.840;10.064;2023-05-02T03:24:50;96627.41;;;5.88;nan
34328;BME280;20588;48.840;10.064;2023-05-02T03:27:16;96629.97;;;5.88;nan
34328;BME280;20588;48.840;10.064;2023-05-02T03:29:42;96629.69;;;5.83;nan
34328;BME280;20588;48.840;10.064;2023-05-02T03:32:08;96634.13;;;5.81;nan
34328;BME280;20588;48.840;10.064;2023-05-02T03:34:34;96636.25;;;5.77;nan
34328;BME280;20588;48.840;10.064;2023-05-02T03:37:00;96637.41;;;5.75;nan
34328;BME280;20588;48.840;10.064;2023-05-02T03:39:26;96633.09;;;5.75;nan
34328;BME280;20588;48.840;10.064;2023-05-02T03:41:52;96639.78;;;5.76;nan
34328;BME280;20588;48.840;10.064;2023-05-02T03:44:18;96642.94;;;5.78;nan
34328;BME280;20588;48.840;10.064;2023-05-02T03:46:44;96654.06;;;5.85;nan
34328;BME280;20588;48.840;10.064;2023-05-02T03:49:13;96652.13;;;5.87;nan
34328;BME280;20588;48.840;10.064;2023-05-02T03:51:39;96662.78;;;5.91;nan
34328;BME280;20588;48.840;10.064;2023-05-02T03:54:05;96656.72;;;5.92;nan
34328;BME280;20588;48.840;10.064;2023-05-02T03:56:32;96661.47;;;5.95;nan
34328;BME280;20588;48.840;10.064;2023-05-02T03:58:58;96660.13;;;5.99;nan
34328;BME280;20588;48.840;10.064;2023-05-02T04:01:24;96666.13;;;6.06;nan
34328;BME280;20588;48.840;10.064;2023-05-02T04:03:51;96668.72;;;6.12;nan
34328;BME280;20588;48.840;10.064;2023-05-02T04:06:18;96664.34;;;6.21;nan
34328;BME280;20588;48.840;10.064;2023-05-02T04:08:44;96664.41;;;6.27;nan
34328;BME280;20588;48.840;10.064;2023-05-02T04:11:10;96676.63;;;6.32;nan
34328;BME280;20588;48.840;10.064;2023-05-02T04:13:36;96675.91;;;6.38;nan
34328;BME280;20588;48.840;10.064;2023-05-02T04:16:02;96677.38;;;6.47;nan
34328;BME280;20588;48.840;10.064;2023-05-02T04:18:29;96687.88;;;6.52;nan
34328;BME280;20588;48.840;10.064;2023-05-02T04:20:55;96695.00;;;6.56;nan
34328;BME280;20588;48.840;10.064;2023-05-02T04:23:22;96688.97;;;6.64;nan
34328;BME280;20588;48.840;10.064;2023-05-02T04:25:52;96695.47;;;6.81;nan
34328;BME280;20588;48.840;10.064;2023-05-02T04:28:21;96692.06;;;6.95;nan
34328;BME280;20588;48.840;10.064;2023-05-02T04:30:48;96701.97;;;7.04;nan
34328;BME280;20588;48.840;10.064;2023-05-02T04:33:15;96702.28;;;7.16;nan
34328;BME280;20588;48.840;10.064;2023-05-02T04:35:41;96703.78;;;7.31;nan
34328;BME280;20588;48.840;10.064;2023-05-02T04:38:07;96705.06;;;7.42;nan
34328;BME280;20588;48.840;10.064;2023-05-02T04:40:34;96705.34;;;7.54;nan
34328;BME280;20588;48.840;10.064;2023-05-02T04:43:00;96709.78;;;7.66;nan
34328;BME280;20588;48.840;10.064;2023-05-02T04:45:26;96708.84;;;7.80;nan
34328;BME280;20588;48.840;10.064;2023-05-02T04:47:52;96708.78;;;7.95;nan
34328;BME280;20588;48.840;10.064;2023-05-02T04:50:18;96713.56;;;8.11;nan
34328;BME280;20588;48.840;10.064;2023-05-02T04:52:44;96713.13;;;8.28;nan
34328;BME280;20588;48.840;10.064;2023-05-02T04:55:10;96720.84;;;8.41;nan
34328;BME280;20588;48.840;10.064;2023-05-02T04:57:36;96722.88;;;8.59;nan
34328;BME280;20588;48.840;10.064;2023-05-02T05:00:05;96727.47;;;8.70;nan
34328;BME280;20588;48.840;10.064;2023-05-02T05:02:31;96720.59;;;8.83;nan
34328;BME280;20588;48.840;10.064;2023-05-02T05:04:59;96727.31;;;8.91;nan
34328;BME280;20588;48.840;10.064;2023-05-02T05:07:26;96737.22;;;9.00;nan
34328;BME280;20588;48.840;10.064;2023-05-02T05:09:52;96733.13;;;9.19;nan
34328;BME280;20588;48.840;10.064;2023-05-02T05:12:18;96729.56;;;9.40;nan
34328;BME280;20588;48.840;10.064;2023-05-02T05:14:45;96734.72;;;9.59;nan
34328;BME280;20588;48.840;10.064;2023-05-02T05:17:11;96737.69;;;9.63;nan
34328;BME280;20588;48.840;10.064;2023-05-02T05:19:37;96742.44;;;9.72;nan
34328;BME280;20588;48.840;10.064;2023-05-02T05:22:03;96738.88;;;9.80;nan
34328;BME280;20588;48.840;10.064;2023-05-02T05:24:29;96737.44;;;9.97;nan
34328;BME280;20588;48.840;10.064;2023-05-02T05:26:55;96737.25;;;10.05;nan
34328;BME280;20588;48.840;10.064;2023-05-02T05:29:21;96742.97;;;10.20;nan
34328;BME280;20588;48.840;10.064;2023-05-02T05:31:47;96736.63;;;10.22;nan
34328;BME280;20588;48.840;10.064;2023-05-02T05:34:13;96736.41;;;10.37;nan
34328;BME280;20588;48.840;10.064;2023-05-02T05:36:40;96745.06;;;10.49;nan
34328;BME280;20588;48.840;10.064;2023-05-02T05:39:06;96743.22;;;10.62;nan
34328;BME280;20588;48.840;10.064;2023-05-02T05:41:33;96752.47;;;10.76;nan
34328;BME280;20588;48.840;10.064;2023-05-02T05:43:59;96754.78;;;10.91;nan
34328;BME280;20588;48.840;10.064;2023-05-02T05:46:26;96756.69;;;11.09;nan
34328;BME280;20588;48.840;10.064;2023-05-02T05:48:52;96757.81;;;11.19;nan
34328;BME280;20588;48.840;10.064;2023-05-02T05:51:18;96757.94;;;11.31;nan
34328;BME280;20588;48.840;10.064;2023-05-02T05:53:44;96761.19;;;11.44;nan
34328;BME280;20588;48.840;10.064;2023-05-02T05:56:11;96764.09;;;11.54;nan
34328;BME280;20588;48.840;10.064;2023-05-02T05:58:38;96769.41;;;11.66;nan
34328;BME280;20588;48.840;10.064;2023-05-02T06:01:05;96760.84;;;11.72;nan
34328;BME280;20588;48.840;10.064;2023-05-02T06:03:31;96771.25;;;11.83;nan
34328;BME280;20588;48.840;10.064;2023-05-02T06:05:57;96759.66;;;11.92;nan
34328;BME280;20588;48.840;10.064;2023-05-02T06:08:23;96764.19;;;11.97;nan
34328;BME280;20588;48.840;10.064;2023-05-02T06:10:49;96772.28;;;12.00;nan
34328;BME280;20588;48.840;10.064;2023-05-02T06:13:15;96773.66;;;12.03;nan
34328;BME280;20588;48.840;10.064;2023-05-02T06:15:41;96780.31;;;12.10;nan
34328;BME280;20588;48.840;10.064;2023-05-02T06:18:07;96784.50;;;12.11;nan
34328;BME280;20588;48.840;10.064;2023-05-02T06:20:35;96788.50;;;12.07;nan
34328;BME280;20588;48.840;10.064;2023-05-02T06:23:01;96792.44;;;12.10;nan
34328;BME280;20588;48.840;10.064;2023-05-02T06:25:27;96806.41;;;12.02;nan
34328;BME280;20588;48.840;10.064;2023-05-02T06:27:53;96807.59;;;12.00;nan
34328;BME280;20588;48.840;10.064;2023-05-02T06:30:19;96814.56;;;11.99;nan
34328;BME280;20588;48.840;10.064;2023-05-02T06:32:46;96816.72;;;12.02;nan
34328;BME280;20588;48.840;10.064;2023-05-02T06:35:12;96820.03;;;12.09;nan
34328;BME280;20588;48.840;10.064;2023-05-02T06:37:38;96826.72;;;12.17;nan
34328;BME280;20588;48.840;10.064;2023-05-02T06:40:04;96829.06;;;12.18;nan
34328;BME280;20588;48.840;10.064;2023-05-02T06:42:30;96838.97;;;12.21;nan
34328;BME280;20588;48.840;10.064;2023-05-02T06:44:56;96835.59;;;12.21;nan
34328;BME280;20588;48.840;10.064;2023-05-02T06:47:22;96840.13;;;12.25;nan
34328;BME280;20588;48.840;10.064;2023-05-02T06:49:50;96838.28;;;12.32;nan
34328;BME280;20588;48.840;10.064;2023-05-02T06:52:16;96836.44;;;12.57;nan
34328;BME280;20588;48.840;10.064;2023-05-02T06:54:42;96839.75;;;12.64;nan
34328;BME280;20588;48.840;10.064;2023-05-02T06:57:08;96848.88;;;12.85;nan
34328;BME280;20588;48.840;10.064;2023-05-02T06:59:35;96852.47;;;12.84;nan
34328;BME280;20588;48.840;10.064;2023-05-02T07:02:02;96852.59;;;12.89;nan
34328;BME280;20588;48.840;10.064;2023-05-02T07:04:28;96850.53;;;12.80;nan
34328;BME280;20588;48.840;10.064;2023-05-02T07:06:54;96854.69;;;12.81;nan
34328;BME280;20588;48.840;10.064;2023-05-02T07:09:20;96860.28;;;12.77;nan
34328;BME280;20588;48.840;10.064;2023-05-02T07:11:46;96861.94;;;12.90;nan
34328;BME280;20588;48.840;10.064;2023-05-02T07:14:12;96859.78;;;12.87;nan
34328;BME280;20588;48.840;10.064;2023-05-02T07:16:38;96868.09;;;12.89;nan
34328;BME280;20588;48.840;10.064;2023-05-02T07:19:04;96873.03;;;12.91;nan
34328;BME280;20588;48.840;10.064;2023-05-02T07:21:31;96868.47;;;12.93;nan
34328;BME280;20588;48.840;10.064;2023-05-02T07:23:57;96870.19;;;12.99;nan
34328;BME280;20588;48.840;10.064;2023-05-02T07:26:23;96868.31;;;13.06;nan
34328;BME280;20588;48.840;10.064;2023-05-02T07:28:52;96873.22;;;13.14;nan
34328;BME280;20588;48.840;10.064;2023-05-02T07:31:18;96873.19;;;13.32;nan
34328;BME280;20588;48.840;10.064;2023-05-02T07:33:44;96868.09;;;13.43;nan
34328;BME280;20588;48.840;10.064;2023-05-02T07:36:10;96877.38;;;13.62;nan
34328;BME280;20588;48.840;10.064;2023-05-02T07:38:36;96868.88;;;13.73;nan
34328;BME280;20588;48.840;10.064;2023-05-02T07:41:02;96878.13;;;13.81;nan
34328;BME280;20588;48.840;10.064;2023-05-02T07:43:28;96875.41;;;13.87;nan
34328;BME280;20588;48.840;10.064;2023-05-02T07:45:54;96881.66;;;13.98;nan
34328;BME280;20588;48.840;10.064;2023-05-02T07:48:21;96879.19;;;14.14;nan
34328;BME280;20588;48.840;10.064;2023-05-02T07:50:47;96878.41;;;14.14;nan
34328;BME280;20588;48.840;10.064;2023-05-02T07:53:13;96885.50;;;14.18;nan
34328;BME280;20588;48.840;10.064;2023-05-02T07:55:39;96883.16;;;14.28;nan
34328;BME280;20588;48.840;10.064;2023-05-02T07:58:05;96883.53;;;14.32;nan
34328;BME280;20588;48.840;10.064;2023-05-02T08:00:31;96884.19;;;14.39;nan
34328;BME280;20588;48.840;10.064;2023-05-02T08:02:57;96892.41;;;14.36;nan
34328;BME280;20588;48.840;10.064;2023-05-02T08:05:23;96889.50;;;14.44;nan
34328;BME280;20588;48.840;10.064;2023-05-02T08:07:49;96892.75;;;14.39;nan
34328;BME280;20588;48.840;10.064;2023-05-02T08:10:15;96889.72;;;14.54;nan
34328;BME280;20588;48.840;10.064;2023-05-02T08:12:42;96894.81;;;14.72;nan
34328;BME280;20588;48.840;10.064;2023-05-02T08:15:09;96901.69;;;14.78;nan
34328;BME280;20588;48.840;10.064;2023-05-02T08:17:38;96899.88;;;14.90;nan
34328;BME280;20588;48.840;10.064;2023-05-02T08:20:04;96899.94;;;14.95;nan
34328;BME280;20588;48.840;10.064;2023-05-02T08:22:31;96906.81;;;15.13;nan
34328;BME280;20588;48.840;10.064;2023-05-02T08:24:57;96908.22;;;15.32;nan
34328;BME280;20588;48.840;10.064;2023-05-02T08:27:23;96896.72;;;15.51;nan
34328;BME280;20588;48.840;10.064;2023-05-02T08:29:49;96898.31;;;15.68;nan
34328;BME280;20588;48.840;10.064;2023-05-02T08:32:15;96904.66;;;15.89;nan
34328;BME280;20588;48.840;10.064;2023-05-02T08:34:41;96900.13;;;16.12;nan
34328;BME280;20588;48.840;10.064;2023-05-02T08:37:09;96911.41;;;16.35;nan
34328;BME280;20588;48.840;10.064;2023-05-02T08:39:35;96910.31;;;16.64;nan
34328;BME280;20588;48.840;10.064;2023-05-02T08:42:05;96919.09;;;16.96;nan
34328;BME280;20588;48.840;10.064;2023-05-02T08:44:32;96919.31;;;17.11;nan
34328;BME280;20588;48.840;10.064;2023-05-02T08:46:59;96921.47;;;17.40;nan
34328;BME280;20588;48.840;10.064;2023-05-02T08:49:26;96924.09;;;17.83;nan
34328;BME280;20588;48.840;10.064;2023-05-02T08:51:54;96925.75;;;18.21;nan
34328;BME280;20588;48.840;10.064;2023-05-02T08:54:22;96924.91;;;18.42;nan
34328;BME280;20588;48.840;10.064;2023-05-02T08:56:53;96924.56;;;18.65;nan
34328;BME280;20588;48.840;10.064;2023-05-02T08:59:20;96930.81;;;19.06;nan
34328;BME280;20588;48.840;10.064;2023-05-02T09:01:48;96930.72;;;19.37;nan
34328;BME280;20588;48.840;10.064;2023-05-02T09:04:19;96935.56;;;19.65;nan
34328;BME280;20588;48.840;10.064;2023-05-02T09:06:48;96931.34;;;19.64;nan
34328;BME280;20588;48.840;10.064;2023-05-02T09:09:14;96936.31;;;19.56;nan
34328;BME280;20588;48.840;10.064;2023-05-02T09:11:41;96932.38;;;19.53;nan
34328;BME280;20588;48.840;10.064;2023-05-02T09:14:16;96928.50;;;19.61;nan
34328;BME280;20588;48.840;10.064;2023-05-02T09:16:43;96929.06;;;19.83;nan
34328;BME280;20588;48.840;10.064;2023-05-02T09:19:09;96929.59;;;19.85;nan
34328;BME280;20588;48.840;10.064;2023-05-02T09:21:39;96925.72;;;19.98;nan
34328;BME280;20588;48.840;10.064;2023-05-02T09:24:21;96937.19;;;19.97;nan
34328;BME280;20588;48.840;10.064;2023-05-02T09:26:59;96936.13;;;19.78;nan
34328;BME280;20588;48.840;10.064;2023-05-02T09:29:28;96930.03;;;19.52;nan
34328;BME280;20588;48.840;10.064;2023-05-02T09:31:55;96927.63;;;19.40;nan
34328;BME280;20588;48.840;10.064;2023-05-02T09:34:22;96938.06;;;19.35;nan
34328;BME280;20588;48.840;10.064;2023-05-02T09:36:50;96941.25;;;19.47;nan
34328;BME280;20588;48.840;10.064;2023-05-02T09:39:25;96936.81;;;19.53;nan
34328;BME280;20588;48.840;10.064;2023-05-02T09:41:51;96941.78;;;19.54;nan
34328;BME280;20588;48.840;10.064;2023-05-02T09:44:23;96942.31;;;19.61;nan
34328;BME280;20588;48.840;10.064;2023-05-02T09:46:54;96950.00;;;19.88;nan
34328;BME280;20588;48.840;10.064;2023-05-02T09:49:39;96940.09;;;20.10;nan
34328;BME280;20588;48.840;10.064;2023-05-02T09:52:10;96940.94;;;20.36;nan
34328;BME280;20588;48.840;10.064;2023-05-02T09:57:03;96941.91;;;21.25;nan
34328;BME280;20588;48.840;10.064;2023-05-02T09:59:29;96942.78;;;21.69;nan
34328;BME280;20588;48.840;10.064;2023-05-02T10:01:57;96943.41;;;22.05;nan
34328;BME280;20588;48.840;10.064;2023-05-02T10:04:24;96941.31;;;22.50;nan
34328;BME280;20588;48.840;10.064;2023-05-02T10:06:52;96941.19;;;23.17;nan
34328;BME280;20588;48.840;10.064;2023-05-02T10:09:19;96936.44;;;23.67;nan
34328;BME280;20588;48.840;10.064;2023-05-02T10:11:48;96944.31;;;23.67;nan
34328;BME280;20588;48.840;10.064;2023-05-02T10:14:16;96942.72;;;23.89;nan
34328;BME280;20588;48.840;10.064;2023-05-02T10:17:06;96939.06;;;24.59;nan
34328;BME280;20588;48.840;10.064;2023-05-02T10:19:42;96937.31;;;25.95;nan
34328;BME280;20588;48.840;10.064;2023-05-02T10:22:11;96931.34;;;27.22;nan
34328;BME280;20588;48.840;10.064;2023-05-02T10:24:38;96941.19;;;27.00;nan
34328;BME280;20588;48.840;10.064;2023-05-02T10:27:05;96942.84;;;26.87;nan
34328;BME280;20588;48.840;10.064;2023-05-02T10:29:32;96942.72;;;27.62;nan
34328;BME280;20588;48.840;10.064;2023-05-02T10:32:00;96940.16;;;28.39;nan
34328;BME280;20588;48.840;10.064;2023-05-02T10:34:31;96933.34;;;29.01;nan
34328;BME280;20588;48.840;10.064;2023-05-02T10:36:58;96937.84;;;29.84;nan
34328;BME280;20588;48.840;10.064;2023-05-02T10:39:27;96931.38;;;30.35;nan
34328;BME280;20588;48.840;10.064;2023-05-02T10:41:55;96931.03;;;29.45;nan
34328;BME280;20588;48.840;10.064;2023-05-02T10:44:35;96921.13;;;28.54;nan
34328;BME280;20588;48.840;10.064;2023-05-02T10:47:21;96915.16;;;27.54;nan
34328;BME280;20588;48.840;10.064;2023-05-02T10:50:01;96922.72;;;28.03;nan
34328;BME280;20588;48.840;10.064;2023-05-02T10:52:35;96913.34;;;28.66;nan
34328;BME280;20588;48.840;10.064;2023-05-02T10:55:17;96914.91;;;29.21;nan
34328;BME280;20588;48.840;10.064;2023-05-02T11:00:24;96909.56;;;30.29;nan
34328;BME280;20588;48.840;10.064;2023-05-02T11:02:51;96909.28;;;30.43;nan
34328;BME280;20588;48.840;10.064;2023-05-02T11:05:17;96908.06;;;30.20;nan
34328;BME280;20588;48.840;10.064;2023-05-02T11:07:44;96915.03;;;29.83;nan
34328;BME280;20588;48.840;10.064;2023-05-02T11:12:49;96904.78;;;28.69;nan
34328;BME280;20588;48.840;10.064;2023-05-02T11:18:08;96892.94;;;28.41;nan
34328;BME280;20588;48.840;10.064;2023-05-02T11:20:43;96895.44;;;28.63;nan
34328;BME280;20588;48.840;10.064;2023-05-02T11:25:42;96908.56;;;29.72;nan
34328;BME280;20588;48.840;10.064;2023-05-02T11:28:43;96894.97;;;30.15;nan
34328;BME280;20588;48.840;10.064;2023-05-02T11:34:00;96902.41;;;30.01;nan
34328;BME280;20588;48.840;10.064;2023-05-02T11:36:33;96901.69;;;29.71;nan
34328;BME280;20588;48.840;10.064;2023-05-02T11:39:01;96898.75;;;28.97;nan
34328;BME280;20588;48.840;10.064;2023-05-02T11:41:43;96907.78;;;27.99;nan
34328;BME280;20588;48.840;10.064;2023-05-02T11:44:11;96900.41;;;27.23;nan
34328;BME280;20588;48.840;10.064;2023-05-02T11:46:38;96907.56;;;26.61;nan
34328;BME280;20588;48.840;10.064;2023-05-02T11:49:05;96904.72;;;26.35;nan
34328;BME280;20588;48.840;10.064;2023-05-02T11:51:33;96900.41;;;26.62;nan
34328;BME280;20588;48.840;10.064;2023-05-02T11:53:59;96902.28;;;26.61;nan
34328;BME280;20588;48.840;10.064;2023-05-02T11:56:26;96900.06;;;26.32;nan
34328;BME280;20588;48.840;10.064;2023-05-02T11:59:02;96894.44;;;26.48;nan
34328;BME280;20588;48.840;10.064;2023-05-02T12:01:29;96902.06;;;26.49;nan
34328;BME280;20588;48.840;10.064;2023-05-02T12:04:05;96892.47;;;26.84;nan
34328;BME280;20588;48.840;10.064;2023-05-02T12:06:32;96895.34;;;27.43;nan
34328;BME280;20588;48.840;10.064;2023-05-02T12:09:09;96888.19;;;27.44;nan
34328;BME280;20588;48.840;10.064;2023-05-02T12:11:36;96884.56;;;26.84;nan
34328;BME280;20588;48.840;10.064;2023-05-02T12:14:03;96898.13;;;26.02;nan
34328;BME280;20588;48.840;10.064;2023-05-02T12:16:31;96901.81;;;25.25;nan
34328;BME280;20588;48.840;10.064;2023-05-02T12:18:57;96895.00;;;25.24;nan
34328;BME280;20588;48.840;10.064;2023-05-02T12:21:27;96901.44;;;25.59;nan
34328;BME280;20588;48.840;10.064;2023-05-02T12:23:54;96897.97;;;26.21;nan
34328;BME280;20588;48.840;10.064;2023-05-02T12:26:22;96904.34;;;26.64;nan
34328;BME280;20588;48.840;10.064;2023-05-02T12:28:55;96900.41;;;26.62;nan
34328;BME280;20588;48.840;10.064;2023-05-02T12:31:23;96905.31;;;26.77;nan
34328;BME280;20588;48.840;10.064;2023-05-02T12:33:49;96902.56;;;26.37;nan
34328;BME280;20588;48.840;10.064;2023-05-02T12:36:17;96904.78;;;25.86;nan
34328;BME280;20588;48.840;10.064;2023-05-02T12:39:04;96890.25;;;25.75;nan
34328;BME280;20588;48.840;10.064;2023-05-02T12:41:31;96900.59;;;25.99;nan
34328;BME280;20588;48.840;10.064;2023-05-02T12:43:57;96898.84;;;26.38;nan
34328;BME280;20588;48.840;10.064;2023-05-02T12:46:25;96902.88;;;26.58;nan
34328;BME280;20588;48.840;10.064;2023-05-02T12:49:11;96902.94;;;26.97;nan
34328;BME280;20588;48.840;10.064;2023-05-02T12:51:38;96902.19;;;27.05;nan
34328;BME280;20588;48.840;10.064;2023-05-02T12:54:04;96902.16;;;27.27;nan
34328;BME280;20588;48.840;10.064;2023-05-02T12:56:41;96914.53;;;27.66;nan
34328;BME280;20588;48.840;10.064;2023-05-02T12:59:08;96910.25;;;28.04;nan
34328;BME280;20588;48.840;10.064;2023-05-02T13:01:35;96909.00;;;28.01;nan
34328;BME280;20588;48.840;10.064;2023-05-02T13:04:01;96908.88;;;27.33;nan
34328;BME280;20588;48.840;10.064;2023-05-02T13:06:27;96914.06;;;26.86;nan
34328;BME280;20588;48.840;10.064;2023-05-02T13:08:54;96913.84;;;26.07;nan
34328;BME280;20588;48.840;10.064;2023-05-02T13:11:20;96911.63;;;25.38;nan
34328;BME280;20588;48.840;10.064;2023-05-02T13:13:46;96919.97;;;25.00;nan
34328;BME280;20588;48.840;10.064;2023-05-02T13:16:12;96918.94;;;24.18;nan
34328;BME280;20588;48.840;10.064;2023-05-02T13:18:38;96924.75;;;23.78;nan
34328;BME280;20588;48.840;10.064;2023-05-02T13:21:04;96922.75;;;23.23;nan
34328;BME280;20588;48.840;10.064;2023-05-02T13:23:30;96948.66;;;22.77;nan
34328;BME280;20588;48.840;10.064;2023-05-02T13:25:56;96945.69;;;22.16;nan
34328;BME280;20588;48.840;10.064;2023-05-02T13:28:23;96961.25;;;21.44;nan
34328;BME280;20588;48.840;10.064;2023-05-02T13:30:49;96965.00;;;20.58;nan
34328;BME280;20588;48.840;10.064;2023-05-02T13:33:15;96964.66;;;19.99;nan
34328;BME280;20588;48.840;10.064;2023-05-02T13:35:41;96961.91;;;19.59;nan
34328;BME280;20588;48.840;10.064;2023-05-02T13:38:07;96964.63;;;19.27;nan
34328;BME280;20588;48.840;10.064;2023-05-02T13:40:33;96965.66;;;18.85;nan
34328;BME280;20588;48.840;10.064;2023-05-02T13:42:59;96973.03;;;18.61;nan
34328;BME280;20588;48.840;10.064;2023-05-02T13:45:25;96974.88;;;18.34;nan
34328;BME280;20588;48.840;10.064;2023-05-02T13:47:51;96969.41;;;18.09;nan
34328;BME280;20588;48.840;10.064;2023-05-02T13:50:17;96969.69;;;18.13;nan
34328;BME280;20588;48.840;10.064;2023-05-02T13:52:43;96967.69;;;18.20;nan
34328;BME280;20588;48.840;10.064;2023-05-02T13:55:10;96969.88;;;18.33;nan